createdAt,value
2023-02-01T00:01:38.093Z,16.10
2023-02-01T00:04:44.229Z,16.90
2023-02-01T00:07:52.226Z,17.65
2023-02-01T00:11:06.594Z,14.66
2023-02-01T00:14:13.388Z,14.84
2023-02-01T00:17:21.886Z,16.99
2023-02-01T00:20:28.457Z,15.27
2023-02-01T00:23:37.661Z,14.80
2023-02-01T00:26:47.511Z,14.77
2023-02-01T00:29:53.400Z,14.32
2023-02-01T00:33:02.617Z,14.68
2023-02-01T00:36:12.883Z,14.72
2023-02-01T00:39:20.338Z,13.95
2023-02-01T00:42:26.074Z,13.88
2023-02-01T00:45:32.772Z,12.85
2023-02-01T00:48:41.388Z,12.05
2023-02-01T00:51:51.538Z,10.87
2023-02-01T00:54:57.347Z,11.46
2023-02-01T00:58:03.919Z,10.90
2023-02-01T01:04:53.369Z,8.97
2023-02-01T01:07:59.133Z,8.40
2023-02-01T01:11:10.661Z,15.14
2023-02-01T01:14:16.427Z,6.82
2023-02-01T01:17:23.204Z,6.55
2023-02-01T01:20:31.679Z,4.69
2023-02-01T01:23:39.843Z,4.12
2023-02-01T01:26:45.787Z,3.91
2023-02-01T01:29:52.487Z,3.89
2023-02-01T01:32:58.272Z,4.48
2023-02-01T01:36:15.035Z,6.81
2023-02-01T01:39:20.767Z,4.22
2023-02-01T01:42:27.448Z,4.30
2023-02-01T01:45:36.606Z,4.03
2023-02-01T01:48:43.318Z,3.48
2023-02-01T01:51:59.419Z,3.51
2023-02-01T01:55:07.537Z,3.12
2023-02-01T01:58:21.609Z,3.59
2023-02-01T02:01:28.832Z,2.32
2023-02-01T02:04:37.280Z,2.96
2023-02-01T02:07:54.832Z,2.77
2023-02-01T02:11:03.916Z,1.91
2023-02-01T02:14:17.194Z,1.22
2023-02-01T02:17:51.122Z,1.30
2023-02-01T02:21:20.420Z,2.04
2023-02-01T02:25:09.628Z,2.01
2023-02-01T02:29:00.308Z,2.17
2023-02-01T02:33:02.588Z,2.57
2023-02-01T02:36:27.270Z,2.05
2023-02-01T02:39:55.330Z,2.28
2023-02-01T02:43:25.823Z,2.00
2023-02-01T02:46:55.158Z,2.25
2023-02-01T02:50:35.197Z,2.13
2023-02-01T02:54:13.783Z,2.71
2023-02-01T02:57:39.166Z,3.06
2023-02-01T03:01:01.577Z,2.91
2023-02-01T03:04:18.583Z,2.96
2023-02-01T03:08:20.494Z,3.02
2023-02-01T03:11:49.697Z,3.71
2023-02-01T03:15:16.506Z,3.72
2023-02-01T03:18:44.150Z,2.87
2023-02-01T03:21:57.393Z,3.15
2023-02-01T03:25:16.624Z,3.76
2023-02-01T03:28:31.934Z,4.73
2023-02-01T03:31:38.735Z,3.69
2023-02-01T03:34:45.505Z,3.21
2023-02-01T03:37:56.553Z,3.04
2023-02-01T03:41:15.282Z,10.17
2023-02-01T03:44:35.005Z,9.74
2023-02-01T03:47:50.803Z,11.32
2023-02-01T03:51:05.936Z,13.24
2023-02-01T03:54:19.307Z,12.42
2023-02-01T03:57:33.796Z,13.86
2023-02-01T04:00:43.915Z,14.35
2023-02-01T04:03:52.411Z,11.86
2023-02-01T04:06:58.186Z,11.65
2023-02-01T04:10:05.135Z,14.29
2023-02-01T04:13:10.888Z,15.18
2023-02-01T04:16:20.120Z,16.04
2023-02-01T04:19:25.828Z,18.79
2023-02-01T04:22:32.681Z,12.61
2023-02-01T04:25:38.444Z,7.96
2023-02-01T04:28:45.256Z,8.19
2023-02-01T04:31:54.278Z,8.70
2023-02-01T04:35:01.410Z,9.35
2023-02-01T04:38:08.128Z,17.64
2023-02-01T04:41:14.784Z,19.31
2023-02-01T04:44:22.325Z,16.11
2023-02-01T04:47:31.514Z,13.83
2023-02-01T04:50:37.262Z,15.64
2023-02-01T04:53:43.841Z,13.53
2023-02-01T04:56:49.699Z,14.50
2023-02-01T04:59:56.279Z,16.61
2023-02-01T05:03:05.151Z,16.09
2023-02-01T05:06:11.839Z,17.95
2023-02-01T05:09:17.715Z,22.25
2023-02-01T05:12:37.503Z,24.99
2023-02-01T05:15:43.451Z,28.49
2023-02-01T05:18:53.346Z,30.32
2023-02-01T05:22:00.242Z,33.44
2023-02-01T05:25:08.407Z,33.14
2023-02-01T05:28:18.005Z,30.87
2023-02-01T05:31:25.457Z,27.15
2023-02-01T05:34:34.144Z,26.57
2023-02-01T05:37:41.627Z,23.69
2023-02-01T05:40:50.773Z,18.56
2023-02-01T05:43:57.460Z,16.80
2023-02-01T05:47:03.329Z,18.31
2023-02-01T05:50:13.811Z,20.44
2023-02-01T05:53:21.049Z,22.26
2023-02-01T05:56:27.595Z,19.76
2023-02-01T05:59:34.046Z,19.52
2023-02-01T06:02:40.747Z,21.55
2023-02-01T06:05:52.019Z,20.28
2023-02-01T06:08:58.977Z,19.82
2023-02-01T06:12:05.023Z,20.14
2023-02-01T06:15:16.379Z,19.38
2023-02-01T06:18:22.327Z,18.58
2023-02-01T06:21:34.700Z,17.47
2023-02-01T06:24:40.880Z,17.05
2023-02-01T06:27:48.061Z,15.99
2023-02-01T06:30:53.981Z,15.78
2023-02-01T06:34:08.191Z,15.72
2023-02-01T06:37:16.656Z,14.86
2023-02-01T06:40:23.767Z,17.81
2023-02-01T06:43:31.478Z,17.61
2023-02-01T06:46:38.220Z,14.89
2023-02-01T06:49:44.390Z,13.30
2023-02-01T06:53:00.431Z,13.51
2023-02-01T06:56:17.674Z,12.78
2023-02-01T06:59:25.306Z,14.17
2023-02-01T07:02:31.254Z,14.89
2023-02-01T07:05:37.899Z,14.80
2023-02-01T07:08:46.409Z,15.17
2023-02-01T07:11:53.199Z,14.98
2023-02-01T07:14:59.004Z,15.68
2023-02-01T07:18:05.743Z,14.35
2023-02-01T07:21:12.521Z,15.48
2023-02-01T07:24:21.868Z,14.38
2023-02-01T07:27:27.818Z,21.22
2023-02-01T07:30:34.538Z,29.31
2023-02-01T07:33:41.094Z,16.05
2023-02-01T07:36:47.702Z,15.13
2023-02-01T07:39:56.520Z,14.24
2023-02-01T07:43:03.159Z,13.29
2023-02-01T07:46:10.845Z,13.82
2023-02-01T07:49:25.589Z,15.12
2023-02-01T07:52:33.484Z,14.85
2023-02-01T07:55:45.070Z,16.60
2023-02-01T07:58:52.505Z,16.81
2023-02-01T08:01:59.142Z,19.81
2023-02-01T08:05:08.639Z,19.06
2023-02-01T08:08:15.340Z,17.88
2023-02-01T08:11:29.312Z,16.43
2023-02-01T08:14:35.935Z,22.11
2023-02-01T08:17:41.655Z,15.61
2023-02-01T08:20:49.530Z,16.76
2023-02-01T08:23:57.448Z,17.21
2023-02-01T08:27:07.716Z,15.84
2023-02-01T08:30:15.693Z,17.28
2023-02-01T08:33:23.199Z,16.94
2023-02-01T08:36:37.605Z,17.90
2023-02-01T08:39:47.865Z,17.43
2023-02-01T08:42:58.672Z,18.56
2023-02-01T08:46:12.086Z,20.24
2023-02-01T08:49:18.066Z,19.17
2023-02-01T08:52:24.829Z,24.24
2023-02-01T08:55:32.529Z,25.63
2023-02-01T08:58:42.493Z,20.27
2023-02-01T09:01:48.258Z,19.92
2023-02-01T09:04:55.071Z,19.02
2023-02-01T09:08:01.543Z,15.35
2023-02-01T09:11:13.981Z,18.06
2023-02-01T09:14:22.497Z,27.10
2023-02-01T09:17:30.843Z,23.79
2023-02-01T09:20:37.152Z,21.79
2023-02-01T09:23:44.619Z,22.87
2023-02-01T09:26:50.842Z,21.24
2023-02-01T09:30:00.196Z,18.13
2023-02-01T09:33:14.065Z,24.71
2023-02-01T09:36:20.924Z,22.19
2023-02-01T09:39:27.103Z,16.56
2023-02-01T09:43:04.077Z,15.59
2023-02-01T09:46:28.025Z,16.81
2023-02-01T09:49:49.811Z,16.05
2023-02-01T09:53:04.492Z,14.98
2023-02-01T09:56:22.187Z,16.69
2023-02-01T09:59:44.894Z,18.46
2023-02-01T10:02:55.216Z,19.32
2023-02-01T10:06:45.415Z,17.32
2023-02-01T10:10:11.986Z,16.41
2023-02-01T10:13:43.901Z,18.19
2023-02-01T10:17:08.994Z,22.18
2023-02-01T10:20:34.539Z,21.03
2023-02-01T10:24:18.117Z,17.17
2023-02-01T10:27:30.530Z,16.76
2023-02-01T10:30:49.202Z,16.00
2023-02-01T10:34:03.382Z,15.46
2023-02-01T10:37:30.917Z,18.09
2023-02-01T10:40:38.982Z,15.91
2023-02-01T10:43:49.446Z,17.65
2023-02-01T10:46:55.715Z,16.55
2023-02-01T10:50:19.436Z,20.86
2023-02-01T10:53:39.430Z,24.48
2023-02-01T10:56:49.633Z,22.10
2023-02-01T10:59:55.844Z,24.07
2023-02-01T11:03:08.680Z,20.39
2023-02-01T11:06:32.546Z,21.19
2023-02-01T11:09:45.463Z,20.54
2023-02-01T11:12:59.113Z,19.11
2023-02-01T11:16:18.718Z,20.45
2023-02-01T11:19:26.189Z,20.35
2023-02-01T11:22:33.815Z,20.39
2023-02-01T11:25:42.469Z,20.39
2023-02-01T11:29:00.816Z,23.00
2023-02-01T11:32:08.951Z,23.07
2023-02-01T11:35:25.491Z,22.49
2023-02-01T11:38:35.406Z,22.76
2023-02-01T11:42:07.530Z,25.75
2023-02-01T11:45:28.983Z,22.16
2023-02-01T11:48:37.993Z,24.90
2023-02-01T11:52:04.183Z,28.82
2023-02-01T11:55:51.815Z,24.49
2023-02-01T11:59:48.681Z,23.66
2023-02-01T12:03:53.447Z,22.19
2023-02-01T12:07:09.275Z,22.03
2023-02-01T12:10:38.361Z,18.80
2023-02-01T12:14:06.219Z,20.26
2023-02-01T12:17:58.473Z,24.11
2023-02-01T12:21:29.939Z,36.69
2023-02-01T12:25:20.919Z,34.98
2023-02-01T12:29:06.321Z,30.60
2023-02-01T12:32:43.663Z,26.38
2023-02-01T12:36:11.736Z,24.44
2023-02-01T12:39:32.487Z,23.10
2023-02-01T12:42:47.509Z,21.37
2023-02-01T12:46:06.056Z,22.21
2023-02-01T12:49:26.587Z,30.56
2023-02-01T12:52:47.324Z,23.08
2023-02-01T12:55:59.823Z,24.07
2023-02-01T12:59:17.262Z,23.82
2023-02-01T13:02:43.379Z,25.62
2023-02-01T13:06:15.343Z,20.89
2023-02-01T13:09:39.965Z,20.46
2023-02-01T13:13:06.946Z,23.78
2023-02-01T13:16:28.278Z,30.68
2023-02-01T13:19:48.511Z,27.19
2023-02-01T13:23:07.055Z,23.90
2023-02-01T13:26:15.390Z,22.98
2023-02-01T13:29:26.300Z,25.98
2023-02-01T13:33:53.513Z,25.82
2023-02-01T13:36:56.732Z,23.78
2023-02-01T13:40:35.359Z,20.28
2023-02-01T13:43:59.748Z,18.01
2023-02-01T13:47:33.595Z,15.21
2023-02-01T13:50:45.056Z,15.45
2023-02-01T13:53:53.528Z,14.26
2023-02-01T13:57:06.664Z,16.92
2023-02-01T14:00:31.678Z,16.26
2023-02-01T14:03:50.763Z,20.06
2023-02-01T14:07:00.485Z,26.39
2023-02-01T14:10:51.833Z,28.11
2023-02-01T14:14:47.445Z,23.27
2023-02-01T14:17:54.324Z,23.25
2023-02-01T14:21:24.284Z,26.58
2023-02-01T14:24:35.939Z,27.02
2023-02-01T14:27:43.559Z,23.53
2023-02-01T14:30:53.619Z,24.43
2023-02-01T14:34:06.980Z,27.57
2023-02-01T14:37:30.730Z,27.00
2023-02-01T14:40:38.889Z,29.96
2023-02-01T14:44:15.744Z,28.90
2023-02-01T14:47:39.966Z,29.27
2023-02-01T14:50:51.613Z,31.01
2023-02-01T14:53:58.980Z,33.22
2023-02-01T14:57:07.178Z,30.11
2023-02-01T15:00:27.341Z,29.50
2023-02-01T15:03:58.527Z,29.58
2023-02-01T15:07:16.319Z,28.09
2023-02-01T15:10:25.176Z,32.29
2023-02-01T15:13:33.289Z,25.86
2023-02-01T15:16:51.179Z,27.67
2023-02-01T15:20:07.520Z,26.36
2023-02-01T15:23:21.798Z,26.24
2023-02-01T15:26:34.977Z,24.60
2023-02-01T15:29:41.297Z,23.66
2023-02-01T15:32:52.520Z,20.79
2023-02-01T15:36:15.080Z,19.02
2023-02-01T15:39:27.013Z,19.94
2023-02-01T15:42:34.046Z,17.37
2023-02-01T15:45:41.148Z,14.68
2023-02-01T15:48:52.659Z,12.01
2023-02-01T15:52:07.549Z,13.66
2023-02-01T15:55:27.612Z,13.45
2023-02-01T15:58:36.878Z,11.43
2023-02-01T16:01:45.854Z,13.89
2023-02-01T16:04:56.490Z,14.45
2023-02-01T16:08:16.503Z,18.17
2023-02-01T16:11:31.901Z,14.27
2023-02-01T16:14:37.877Z,14.88
2023-02-01T16:17:46.302Z,17.60
2023-02-01T16:20:53.073Z,21.74
2023-02-01T16:24:06.753Z,22.91
2023-02-01T16:27:13.115Z,34.69
2023-02-01T16:30:24.379Z,30.28
2023-02-01T16:33:30.686Z,26.33
2023-02-01T16:36:52.987Z,22.76
2023-02-01T16:40:05.057Z,22.95
2023-02-01T16:43:32.496Z,21.15
2023-02-01T16:46:47.209Z,24.72
2023-02-01T16:49:54.618Z,27.24
2023-02-01T16:53:00.738Z,24.80
2023-02-01T16:56:19.165Z,22.27
2023-02-01T16:59:26.516Z,19.47
2023-02-01T17:02:33.204Z,19.08
2023-02-01T17:05:39.425Z,18.91
2023-02-01T17:08:51.857Z,16.52
2023-02-01T17:12:00.417Z,10.43
2023-02-01T17:15:11.521Z,10.01
2023-02-01T17:18:23.255Z,11.09
2023-02-01T17:21:38.743Z,14.71
2023-02-01T17:24:48.991Z,18.35
2023-02-01T17:27:58.851Z,22.21
2023-02-01T17:31:11.175Z,35.25
2023-02-01T17:34:19.887Z,41.04
2023-02-01T17:37:38.567Z,42.16
2023-02-01T17:40:46.318Z,49.71
2023-02-01T17:43:57.571Z,57.27
2023-02-01T17:47:17.731Z,62.22
2023-02-01T17:50:26.300Z,92.51
2023-02-01T17:53:36.021Z,80.68
2023-02-01T17:56:42.133Z,47.80
2023-02-01T17:59:51.614Z,32.81
2023-02-01T18:02:57.713Z,51.10
2023-02-01T18:06:16.373Z,60.96
2023-02-01T18:09:22.313Z,58.02
2023-02-01T18:12:37.930Z,72.49
2023-02-01T18:15:47.452Z,63.79
2023-02-01T18:18:57.941Z,47.63
2023-02-01T18:22:07.839Z,42.01
2023-02-01T18:25:21.720Z,35.60
2023-02-01T18:28:31.736Z,36.85
2023-02-01T18:31:55.220Z,36.89
2023-02-01T18:35:01.612Z,48.12
2023-02-01T18:38:08.875Z,70.23
2023-02-01T18:41:20.948Z,60.38
2023-02-01T18:44:28.381Z,35.15
2023-02-01T18:47:49.684Z,34.19
2023-02-01T18:51:14.719Z,47.55
2023-02-01T18:54:29.175Z,37.55
2023-02-01T18:57:36.081Z,41.36
2023-02-01T19:00:43.454Z,46.07
2023-02-01T19:03:58.564Z,40.60
2023-02-01T19:07:16.922Z,33.58
2023-02-01T19:10:27.782Z,31.22
2023-02-01T19:13:37.227Z,32.65
2023-02-01T19:16:48.059Z,32.50
2023-02-01T19:20:03.037Z,34.75
2023-02-01T19:23:10.230Z,33.34
2023-02-01T19:26:18.568Z,30.12
2023-02-01T19:29:26.560Z,27.38
2023-02-01T19:32:32.890Z,27.05
2023-02-01T19:35:45.555Z,24.61
2023-02-01T19:38:51.681Z,23.54
2023-02-01T19:41:59.484Z,26.61
2023-02-01T19:45:13.509Z,26.96
2023-02-01T19:48:24.709Z,27.51
2023-02-01T19:51:33.329Z,30.09
2023-02-01T19:54:43.816Z,33.48
2023-02-01T19:57:49.655Z,36.75
2023-02-01T20:00:57.178Z,37.12
2023-02-01T20:04:18.863Z,38.42
2023-02-01T20:07:28.916Z,38.72
2023-02-01T20:10:35.183Z,42.82
2023-02-01T20:13:42.249Z,40.10
2023-02-01T20:16:48.220Z,28.98
2023-02-01T20:19:58.453Z,28.19
2023-02-01T20:23:07.284Z,23.26
2023-02-01T20:26:15.302Z,23.08
2023-02-01T20:29:21.574Z,22.99
2023-02-01T20:32:28.414Z,25.16
2023-02-01T20:35:36.919Z,26.78
2023-02-01T20:38:48.639Z,31.62
2023-02-01T20:41:55.408Z,26.72
2023-02-01T20:45:02.481Z,25.85
2023-02-01T20:48:08.544Z,26.96
2023-02-01T20:51:18.001Z,20.35
2023-02-01T20:54:27.597Z,19.58
2023-02-01T20:57:34.654Z,19.82
2023-02-01T21:00:40.629Z,20.37
2023-02-01T21:03:47.562Z,23.41
2023-02-01T21:06:53.768Z,26.64
2023-02-01T21:10:03.191Z,27.66
2023-02-01T21:13:10.890Z,25.79
2023-02-01T21:16:23.847Z,35.82
2023-02-01T21:19:43.278Z,28.74
2023-02-01T21:22:50.612Z,29.18
2023-02-01T21:26:05.224Z,25.87
2023-02-01T21:29:14.944Z,32.67
2023-02-01T21:32:20.909Z,31.16
2023-02-01T21:35:27.657Z,29.06
2023-02-01T21:38:33.871Z,29.05
2023-02-01T21:41:55.546Z,25.64
2023-02-01T21:45:02.708Z,28.16
2023-02-01T21:48:09.970Z,37.84
2023-02-01T21:51:17.035Z,39.50
2023-02-01T21:54:24.405Z,33.01
2023-02-01T21:57:36.162Z,25.95
2023-02-01T22:00:45.873Z,26.02
2023-02-01T22:03:52.179Z,23.85
2023-02-01T22:06:58.960Z,21.76
2023-02-01T22:10:06.660Z,21.03
2023-02-01T22:13:20.349Z,17.57
2023-02-01T22:16:26.851Z,19.65
2023-02-01T22:19:34.252Z,19.04
2023-02-01T22:22:40.313Z,19.78
2023-02-01T22:25:46.911Z,18.88
2023-02-01T22:28:56.426Z,19.24
2023-02-01T22:32:03.155Z,19.09
2023-02-01T22:35:10.809Z,21.48
2023-02-01T22:38:17.513Z,20.95
2023-02-01T22:41:24.010Z,21.83
2023-02-01T22:44:33.338Z,22.46
2023-02-01T22:47:39.179Z,17.14
2023-02-01T22:50:49.336Z,18.22
2023-02-01T22:54:00.173Z,19.81
2023-02-01T22:57:08.072Z,19.42
2023-02-01T23:00:26.779Z,18.16
2023-02-01T23:03:43.855Z,19.12
2023-02-01T23:06:49.982Z,17.22
2023-02-01T23:09:58.462Z,17.09
2023-02-01T23:13:04.386Z,15.29
2023-02-01T23:16:23.792Z,15.45
2023-02-01T23:19:29.762Z,16.28
2023-02-01T23:22:42.895Z,17.31
2023-02-01T23:25:54.700Z,18.73
2023-02-01T23:29:03.781Z,18.06
2023-02-01T23:32:12.327Z,13.09
2023-02-01T23:35:19.170Z,11.52
2023-02-01T23:38:25.085Z,10.23
2023-02-01T23:41:33.101Z,9.45
2023-02-01T23:44:38.891Z,9.47
2023-02-01T23:47:48.159Z,8.00
2023-02-01T23:50:54.009Z,6.36
2023-02-01T23:54:01.790Z,5.93
2023-02-01T23:57:07.746Z,5.99
